Latest Weather Observations for Ivanhoe Airport

IDN60801

Issued at 10:05 pm EST Monday 21 April 2014 (issued every 30 minutes, with the page automatically refreshed every 10 minutes)

About weather observations | Map of weather stations | Latest weather observations for NSW | Other Formats
Station Details ID: 049000 Name: IVANHOE AERODROME AWS Lat: -32.88 Lon: 144.31 Height: 100.0 m
Data from the previous 72 hours. | See also: Recent months at Ivanhoe Airport
Date/Time
EST
Temp
°C
App
Temp
°C
Dew
Point
Rel
Hum
%
Delta-T
°C
Wind Press
QNH
hPa
Press
MSL
hPa
Rain
since 9 am
mm
Dir
 
Spd
km/h
Gust
km/h
Spd
kts
Gust
kts
21/10:00pm 16.7 14.3 7.1 53 4.8 NNE 9 9 5 5 1018.2 1017.9 0.0
21/09:30pm 16.3 14.0 7.3 55 4.5 ENE 9 9 5 5 1018.2 - 0.0
21/09:00pm 17.9 15.5 7.0 49 5.5 NNE 9 9 5 5 1018.2 1017.9 0.0
21/08:30pm 17.7 15.3 7.2 50 5.3 NE 9 11 5 6 1018.0 - 0.0
21/08:00pm 17.7 14.9 6.9 49 5.4 NNE 11 13 6 7 1018.1 1017.8 0.0
21/07:30pm 19.3 16.9 6.8 44 6.3 NNE 9 9 5 5 1017.9 - 0.0
21/07:00pm 20.0 18.0 7.1 43 6.6 N 7 9 4 5 1017.9 1017.6 0.0
21/06:30pm 20.3 18.2 6.6 41 6.9 N 7 9 4 5 1017.7 - 0.0
21/06:00pm 21.3 19.2 6.8 39 7.4 N 7 7 4 4 1017.6 1017.3 0.0
21/05:30pm 23.2 21.2 6.9 35 8.5 NNW 7 11 4 6 1017.4 - 0.0
21/05:00pm 23.3 21.4 7.4 36 8.3 NW 7 13 4 7 1017.3 1017.0 0.0
21/04:30pm 23.8 21.4 7.0 34 8.8 NW 9 13 5 7 1017.4 - 0.0
21/04:00pm 24.6 21.8 6.8 32 9.3 NW 11 17 6 9 1017.5 1017.2 0.0
21/03:30pm 24.5 21.3 6.7 32 9.3 NW 13 20 7 11 1017.4 - 0.0
21/03:00pm 24.8 21.7 7.4 33 9.2 NW 13 22 7 12 1017.5 1017.2 0.0
21/02:30pm 24.2 21.5 7.4 34 8.8 NNW 11 19 6 10 1017.6 - 0.0
21/02:00pm 23.9 20.3 6.7 33 8.9 NNW 15 26 8 14 1017.8 1017.5 0.0
21/01:30pm 23.9 19.6 7.1 34 8.8 N 19 24 10 13 1018.3 - 0.0
21/01:00pm 23.6 20.8 6.8 34 8.7 NNW 11 20 6 11 1018.8 1018.5 0.0
21/12:30pm 22.7 19.4 6.5 35 8.3 WNW 13 17 7 9 1019.1 - 0.0
21/12:00pm 23.1 20.0 7.2 36 8.3 NNW 13 20 7 11 1019.7 1019.4 0.0
21/11:30am 22.0 18.7 6.3 36 8.0 N 13 24 7 13 1020.2 - 0.0
21/11:00am 21.2 17.4 5.9 37 7.7 NNE 15 26 8 14 1020.4 1020.2 0.0
21/10:30am 20.6 16.9 6.2 39 7.3 NNE 15 22 8 12 1020.6 - 0.0
21/10:00am 19.6 16.1 5.6 40 6.9 NNE 13 19 7 10 1021.1 1020.9 0.0
21/09:30am 18.2 14.5 6.1 45 6.0 NNE 15 20 8 11 1021.3 - 0.0
21/09:00am 17.1 13.1 6.6 50 5.2 NE 17 22 9 12 1021.2 1021.0 0.0
21/08:30am 14.9 11.1 5.7 54 4.4 NE 15 20 8 11 1021.1 - 0.0
21/08:00am 12.8 9.3 5.5 61 3.4 NE 13 17 7 9 1021.1 1020.9 0.0
21/07:30am 10.3 7.2 5.5 72 2.2 NE 11 13 6 7 1020.9 - 0.0
21/07:00am 8.4 5.5 4.4 76 1.8 NE 9 11 5 6 1020.8 1020.6 0.0
21/06:30am 8.1 5.1 4.3 77 1.7 ENE 9 11 5 6 1020.5 - 0.0
21/06:00am 8.8 5.5 4.6 75 1.9 ENE 11 13 6 7 1020.1 1019.9 0.0
21/05:30am 8.9 5.6 4.5 74 2.0 ENE 11 13 6 7 1019.9 - 0.0
21/05:00am 9.3 6.1 5.1 75 1.9 ENE 11 13 6 7 1019.7 1019.4 0.0
21/04:30am 8.4 5.1 4.4 76 1.8 E 11 13 6 7 1019.5 - 0.0
21/04:00am 9.3 6.4 4.7 73 2.1 ESE 9 13 5 7 1019.4 1019.1 0.0
21/03:30am 9.4 6.5 4.6 72 2.1 E 9 11 5 6 1019.2 - 0.0
21/03:00am 9.8 6.9 4.6 70 2.3 ENE 9 9 5 5 1019.2 1018.9 0.0
21/02:30am 10.2 7.7 4.8 69 2.4 ENE 7 9 4 5 1019.3 - 0.0
21/02:00am 10.7 8.2 4.8 67 2.7 ENE 7 7 4 4 1019.4 1019.1 0.0
21/01:30am 10.9 8.4 4.8 66 2.8 ENE 7 9 4 5 1019.4 - 0.0
21/01:00am 11.3 8.1 5.0 65 2.9 ENE 11 11 6 6 1019.3 1019.0 0.0
21/12:30am 11.4 8.2 5.1 65 2.9 E 11 11 6 6 1019.4 - 0.0
21/12:00am 11.5 8.6 4.9 64 3.0 ENE 9 11 5 6 1019.5 1019.2 0.0
 
Date/Time
EST
Temp
°C
App
Temp
°C
Dew
Point
Rel
Hum
%
Delta-T
°C
Wind Press
QNH
hPa
Press
MSL
hPa
Rain
since 9 am
mm
Dir
 
Spd
km/h
Gust
km/h
Spd
kts
Gust
kts
20/11:30pm 11.5 8.7 5.2 65 2.9 ENE 9 11 5 6 1019.4 - 0.0
20/11:00pm 12.2 8.6 5.1 62 3.3 E 13 13 7 7 1019.6 1019.3 0.0
20/10:30pm 12.6 9.4 5.3 61 3.4 E 11 13 6 7 1019.6 - 0.0
20/10:00pm 13.2 10.1 5.4 59 3.7 E 11 13 6 7 1019.5 1019.2 0.0
20/09:30pm 13.3 10.2 5.5 59 3.7 E 11 15 6 8 1019.4 - 0.0
20/09:00pm 14.0 10.5 5.6 57 4.0 E 13 15 7 8 1019.3 1019.0 0.0
20/08:30pm 14.4 11.3 5.7 56 4.2 ENE 11 13 6 7 1019.2 - 0.0
20/08:00pm 14.9 12.2 5.7 54 4.4 E 9 9 5 5 1019.0 1018.7 0.0
20/07:30pm 15.5 12.4 5.7 52 4.7 E 11 11 6 6 1018.7 - 0.0
20/07:00pm 16.0 13.4 5.9 51 4.9 ESE 9 9 5 5 1018.5 1018.2 0.0
20/06:30pm 17.0 14.7 5.6 47 5.5 SE 7 9 4 5 1018.2 - 0.0
20/06:00pm 18.3 16.0 5.5 43 6.2 S 7 9 4 5 1018.0 1017.7 0.0
20/05:30pm 20.0 17.8 5.3 38 7.2 S 6 9 3 5 1017.8 - 0.0
20/05:00pm 20.9 18.6 5.7 37 7.6 S 7 15 4 8 1017.6 1017.3 0.0
20/04:30pm 21.2 18.5 5.5 36 7.8 SW 9 15 5 8 1017.5 - 0.0
20/04:00pm 21.4 18.3 5.7 36 7.9 SW 11 19 6 10 1017.5 1017.2 0.0
20/03:30pm 21.2 17.3 5.5 36 7.8 SSW 15 22 8 12 1017.6 - 0.0
20/03:00pm 21.8 19.3 6.5 37 7.8 W 9 15 5 8 1017.5 1017.2 0.0
20/02:30pm 21.6 19.0 5.9 36 7.9 SSW 9 17 5 9 1017.6 - 0.0
20/02:00pm 21.0 17.0 5.0 35 7.9 SW 15 24 8 13 1017.7 1017.4 0.0
20/01:30pm 20.7 17.6 5.5 37 7.6 WSW 11 15 6 8 1018.1 - 0.0
20/01:00pm 20.9 17.5 5.7 37 7.6 W 13 20 7 11 1018.3 1018.0 0.0
20/12:30pm 20.3 15.3 4.8 36 7.6 WSW 20 22 11 12 1018.8 - 0.0
20/12:00pm 20.0 15.3 5.3 38 7.2 SW 19 30 10 16 1019.1 1018.8 0.0
20/11:30am 19.6 15.6 4.9 38 7.2 SW 15 24 8 13 1019.6 - 0.0
20/11:00am 19.6 16.4 5.3 39 7.0 WSW 11 24 6 13 1019.8 1019.5 0.0
20/10:30am 18.8 16.2 4.2 38 7.0 WSW 7 20 4 11 1019.9 - 0.0
20/10:00am 18.5 16.0 5.0 41 6.5 NNW 7 11 4 6 1020.2 1020.0 0.0
20/09:30am 16.8 14.3 4.8 45 5.7 N 7 11 4 6 1020.2 - 0.0
20/09:00am 15.2 12.7 4.9 50 4.8 N 7 13 4 7 1020.3 1020.1 0.0
20/08:30am 12.7 11.6 4.9 59 3.6 CALM 0 0 0 0 1020.0 - 0.0
20/08:00am 10.4 9.3 5.2 70 2.4 CALM 0 0 0 0 1019.6 1019.3 0.0
20/07:30am 7.9 6.9 5.4 84 1.1 CALM 0 0 0 0 1019.3 - 0.0
20/07:00am 6.2 4.8 3.5 83 1.1 CALM 0 0 0 0 1018.9 1018.6 0.0
20/06:30am 5.9 4.4 3.1 82 1.2 CALM 0 0 0 0 1018.6 - 0.0
20/06:00am 6.4 5.0 3.4 81 1.3 CALM 0 0 0 0 1018.3 1018.0 0.0
20/05:30am 6.5 5.1 3.3 80 1.4 CALM 0 0 0 0 1018.2 - 0.0
20/05:00am 7.0 5.6 3.3 77 1.6 CALM 0 0 0 0 1018.0 1017.7 0.0
20/04:30am 7.2 5.8 3.4 77 1.6 CALM 0 0 0 0 1017.8 - 0.0
20/04:00am 7.4 6.0 3.6 77 1.6 CALM 0 0 0 0 1017.7 1017.4 0.0
20/03:30am 6.6 5.2 3.6 81 1.3 CALM 0 0 0 0 1017.7 - 0.0
20/03:00am 7.5 6.0 3.2 74 1.8 CALM 0 0 0 0 1017.8 1017.5 0.0
20/02:30am 8.2 6.8 3.3 71 2.1 CALM 0 0 0 0 1017.8 - 0.0
20/02:00am 8.9 7.5 3.3 68 2.4 CALM 0 0 0 0 1018.1 1017.8 0.0
20/01:30am 9.2 7.8 3.4 67 2.5 CALM 0 0 0 0 1018.3 - 0.0
20/01:00am 9.9 8.6 3.9 66 2.6 CALM 0 0 0 0 1018.3 1018.0 0.0
20/12:30am 9.5 8.1 3.7 67 2.5 CALM 0 0 0 0 1018.4 - 0.0
20/12:00am 9.4 8.0 3.4 66 2.6 CALM 0 0 0 0 1018.3 1018.0 0.0
 
Date/Time
EST
Temp
°C
App
Temp
°C
Dew
Point
Rel
Hum
%
Delta-T
°C
Wind Press
QNH
hPa
Press
MSL
hPa
Rain
since 9 am
mm
Dir
 
Spd
km/h
Gust
km/h
Spd
kts
Gust
kts
19/11:30pm 9.3 7.4 3.1 65 2.7 SE 2 6 1 3 1018.7 - 0.0
19/11:00pm 9.7 7.1 3.2 64 2.8 SE 6 6 3 3 1018.9 1018.6 0.0
19/10:30pm 11.3 8.8 3.8 60 3.3 SE 6 7 3 4 1018.9 - 0.0
19/10:00pm 11.5 8.9 3.3 57 3.6 SE 6 7 3 4 1019.0 1018.7 0.0
19/09:30pm 12.2 9.6 3.4 55 3.9 SE 6 7 3 4 1018.9 - 0.0
19/09:00pm 12.6 9.9 3.5 54 4.1 SE 7 9 4 5 1018.8 1018.5 0.0
19/08:30pm 13.6 10.9 3.7 51 4.5 SSE 7 9 4 5 1018.8 - 0.0
19/08:00pm 13.9 11.2 3.7 50 4.6 S 7 9 4 5 1018.7 1018.4 0.0
19/07:30pm 14.2 11.1 3.7 49 4.8 S 9 9 5 5 1018.7 - 0.0
19/07:00pm 14.7 11.6 3.5 47 5.1 SSE 9 9 5 5 1018.5 1018.2 0.0
19/06:30pm 15.1 11.9 3.3 45 5.4 S 9 11 5 6 1018.4 - 0.0
19/06:00pm 16.3 13.2 3.4 42 5.9 SSW 9 11 5 6 1018.3 1018.0 0.0
19/05:30pm 17.9 14.7 3.0 37 6.9 S 9 15 5 8 1018.0 - 0.0
19/05:00pm 18.7 14.3 2.9 35 7.3 SW 15 22 8 12 1017.9 1017.6 0.0
19/04:30pm 19.1 14.9 3.7 36 7.3 S 15 20 8 11 1018.0 - 0.0
19/04:00pm 19.2 15.0 3.8 36 7.3 SSW 15 22 8 12 1018.2 1017.9 0.0
19/03:30pm 19.1 14.4 3.3 35 7.4 SSW 17 28 9 15 1018.2 - 0.0
19/03:00pm 19.3 15.6 4.6 38 7.1 SSW 13 22 7 12 1018.2 1017.9 0.0
19/02:30pm 19.3 15.2 4.6 38 7.1 SW 15 22 8 12 1018.4 - 0.0
19/02:00pm 18.9 14.9 5.0 40 6.7 SSW 15 22 8 12 1018.8 1018.5 0.0
19/01:30pm 18.3 15.0 4.5 40 6.6 S 11 20 6 11 1019.2 - 0.0
19/01:00pm 18.3 14.5 4.1 39 6.7 SW 13 24 7 13 1019.8 1019.5 0.0
19/12:30pm 17.7 13.2 4.3 41 6.4 SW 17 22 9 12 1020.4 - 0.0
19/12:00pm 18.0 14.8 5.2 43 6.2 S 11 19 6 10 1021.0 1020.8 0.0
19/11:30am 17.4 13.7 4.4 42 6.2 S 13 22 7 12 1021.3 - 0.0
19/11:00am 16.8 14.1 5.4 47 5.5 ESE 9 13 5 7 1021.5 1021.3 0.0
19/10:30am 16.0 12.8 5.3 49 5.1 SSE 11 17 6 9 1021.7 - 0.0
19/10:00am 15.4 12.9 6.4 55 4.4 SSE 9 15 5 8 1021.9 1021.7 0.0
19/09:30am 14.1 10.7 5.7 57 4.0 SE 13 19 7 10 1022.0 - 0.0
19/09:00am 13.2 10.2 5.9 61 3.5 SSE 11 17 6 9 1021.9 1021.7 0.0
19/08:30am 11.4 8.3 5.5 67 2.7 S 11 17 6 9 1021.7 - 0.0
19/08:00am 9.7 7.0 5.5 75 1.9 SSW 9 13 5 7 1021.5 1021.3 0.0
19/07:30am 8.3 5.6 5.4 82 1.3 SSW 9 13 5 7 1021.2 - 0.0
19/07:00am 7.1 3.8 4.8 85 1.0 SSW 11 13 6 7 1020.8 1020.6 0.0
19/06:30am 6.9 3.6 4.7 86 1.0 SW 11 13 6 7 1020.6 - 0.0
19/06:00am 7.3 4.4 4.4 82 1.3 SSW 9 11 5 6 1020.2 1020.0 0.0
19/05:30am 7.9 5.0 4.7 80 1.4 SSW 9 11 5 6 1020.0 - 0.0
19/05:00am 8.7 5.8 4.9 77 1.7 S 9 11 5 6 1019.9 1019.7 0.0
19/04:30am 9.1 5.9 5.1 76 1.8 S 11 13 6 7 1019.6 - 0.0
19/04:00am 9.5 6.8 5.5 76 1.8 S 9 11 5 6 1019.4 1019.1 0.0
19/03:30am 9.9 7.6 5.7 75 1.9 S 7 9 4 5 1019.3 - 0.0
19/03:00am 10.5 7.9 5.9 73 2.1 S 9 13 5 7 1019.3 1019.0 0.0
19/02:30am 11.2 8.6 6.3 72 2.3 S 9 13 5 7 1019.5 - 0.0
19/02:00am 11.7 8.8 6.4 70 2.5 S 11 13 6 7 1019.6 1019.3 0.0
19/01:30am 12.8 10.4 6.8 67 2.9 S 9 13 5 7 1019.7 - 0.0
19/01:00am 13.5 10.7 6.8 64 3.2 S 11 15 6 8 1019.7 1019.4 0.0
19/12:30am 14.2 11.0 7.0 62 3.5 S 13 19 7 10 1019.7 - 0.0
19/12:00am 14.8 11.8 7.6 62 3.6 SSW 13 17 7 9 1019.4 1019.1 0.0
 
Date/Time
EST
Temp
°C
App
Temp
°C
Dew
Point
Rel
Hum
%
Delta-T
°C
Wind Press
QNH
hPa
Press
MSL
hPa
Rain
since 9 am
mm
Dir
 
Spd
km/h
Gust
km/h
Spd
kts
Gust
kts
18/11:30pm 15.6 12.3 8.1 61 3.8 SSW 15 20 8 11 1019.3 - 0.0
18/11:00pm 16.4 12.8 8.4 59 4.1 SSW 17 20 9 11 1019.4 1019.1 0.0
18/10:30pm 17.0 13.6 9.2 60 4.1 SSW 17 20 9 11 1019.3 - 0.0

Other Formats:

Comma delimited format used in spreadsheet applications
http://www.bom.gov.au/fwo/IDN60801/IDN60801.95697.axf

JavaScript Object Notation format (JSON) in row-major order
http://www.bom.gov.au/fwo/IDN60801/IDN60801.95697.json